createdAt,value
2022-08-02T00:01:25.959Z,2.30
2022-08-02T00:06:28.787Z,2.20
2022-08-02T00:11:32.072Z,2.08
2022-08-02T00:16:38.185Z,2.10
2022-08-02T00:21:42.134Z,1.85
2022-08-02T00:26:45.753Z,2.15
2022-08-02T00:31:48.502Z,1.85
2022-08-02T00:36:51.778Z,2.25
2022-08-02T00:41:54.705Z,2.08
2022-08-02T00:46:57.551Z,2.20
2022-08-02T00:52:01.190Z,2.33
2022-08-02T00:57:05.037Z,2.50
2022-08-02T01:02:09.767Z,2.38
2022-08-02T01:07:14.567Z,2.63
2022-08-02T01:12:17.788Z,2.72
2022-08-02T01:17:50.647Z,2.40
2022-08-02T01:23:18.539Z,2.97
2022-08-02T01:28:50.907Z,2.30
2022-08-02T01:34:19.319Z,2.72
2022-08-02T01:39:31.957Z,2.47
2022-08-02T01:44:40.088Z,2.78
2022-08-02T01:49:48.173Z,2.80
2022-08-02T01:55:07.261Z,2.60
2022-08-02T02:00:14.808Z,2.33
2022-08-02T02:05:23.019Z,2.78
2022-08-02T02:10:30.346Z,2.65
2022-08-02T02:15:35.041Z,2.88
2022-08-02T02:20:38.704Z,3.10
2022-08-02T02:25:46.825Z,2.80
2022-08-02T02:30:55.487Z,3.20
2022-08-02T02:35:59.554Z,2.85
2022-08-02T02:41:06.797Z,2.70
2022-08-02T02:46:11.392Z,3.00
2022-08-02T02:51:15.107Z,2.83
2022-08-02T02:56:18.840Z,2.88
2022-08-02T03:01:55.473Z,3.00
2022-08-02T03:06:52.382Z,2.87
2022-08-02T03:11:57.042Z,3.30
2022-08-02T03:16:59.870Z,2.95
2022-08-02T03:22:02.744Z,2.97
2022-08-02T03:27:05.934Z,4.30
2022-08-02T03:32:09.354Z,4.32
2022-08-02T03:37:12.617Z,3.90
2022-08-02T03:42:16.172Z,3.42
2022-08-02T03:47:19.891Z,3.03
2022-08-02T03:52:25.433Z,2.95
2022-08-02T03:57:28.605Z,2.83
2022-08-02T04:02:31.567Z,3.38
2022-08-02T04:08:02.606Z,3.20
2022-08-02T04:12:58.113Z,3.10
2022-08-02T04:18:04.124Z,2.90
2022-08-02T04:23:14.583Z,3.22
2022-08-02T04:28:19.424Z,2.88
2022-08-02T04:33:32.150Z,3.15
2022-08-02T04:38:35.078Z,3.58
2022-08-02T04:43:37.892Z,2.97
2022-08-02T04:48:40.831Z,3.60
2022-08-02T04:53:43.635Z,3.17
2022-08-02T04:58:46.424Z,3.33
2022-08-02T05:03:49.372Z,3.40
2022-08-02T05:08:52.615Z,2.78
2022-08-02T05:13:58.544Z,2.90
2022-08-02T05:19:03.158Z,3.67
2022-08-02T05:24:07.064Z,2.92
2022-08-02T05:29:09.893Z,3.00
2022-08-02T05:34:13.001Z,2.63
2022-08-02T05:39:18.950Z,2.70
2022-08-02T05:44:22.505Z,2.25
2022-08-02T05:49:25.402Z,2.15
2022-08-02T05:54:51.040Z,2.20
2022-08-02T06:00:10.937Z,1.77
2022-08-02T06:05:21.550Z,2.05
2022-08-02T06:10:26.943Z,2.28
2022-08-02T06:15:30.306Z,2.20
2022-08-02T06:20:38.340Z,2.20
2022-08-02T06:25:47.965Z,1.75
2022-08-02T06:30:54.685Z,2.00
2022-08-02T06:36:22.152Z,2.00
2022-08-02T06:41:27.754Z,1.92
2022-08-02T06:46:57.399Z,1.75
2022-08-02T06:51:53.884Z,1.90
2022-08-02T06:56:56.911Z,1.60
2022-08-02T07:02:00.014Z,1.80
2022-08-02T07:07:02.940Z,1.70
2022-08-02T07:12:06.608Z,1.50
2022-08-02T07:17:09.469Z,2.15
2022-08-02T07:22:13.210Z,1.73
2022-08-02T07:27:16.270Z,1.75
2022-08-02T07:32:23.627Z,1.77
2022-08-02T07:37:52.806Z,1.70
2022-08-02T07:43:02.392Z,1.60
2022-08-02T07:48:08.520Z,1.75
2022-08-02T07:53:11.324Z,1.70
2022-08-02T07:58:14.206Z,1.67
2022-08-02T08:03:16.929Z,1.60
2022-08-02T08:08:19.752Z,1.60
2022-08-02T08:13:22.707Z,1.33
2022-08-02T08:18:25.541Z,1.30
2022-08-02T08:23:28.585Z,1.60
2022-08-02T08:28:31.446Z,1.30
2022-08-02T08:33:34.924Z,1.45
2022-08-02T08:38:37.834Z,1.40
2022-08-02T08:43:40.680Z,1.50
2022-08-02T08:48:50.095Z,1.50
2022-08-02T08:53:57.025Z,1.42
2022-08-02T08:59:00.721Z,1.40
2022-08-02T09:04:03.560Z,1.23
2022-08-02T09:09:06.310Z,1.60
2022-08-02T09:14:09.291Z,1.20
2022-08-02T09:19:26.970Z,1.15
2022-08-02T09:24:40.624Z,1.42
2022-08-02T09:35:12.393Z,1.60
2022-08-02T09:40:15.352Z,1.40
2022-08-02T09:45:18.315Z,1.30
2022-08-02T09:50:21.092Z,1.42
2022-08-02T09:55:26.209Z,1.73
2022-08-02T10:00:50.883Z,1.50
2022-08-02T10:06:03.026Z,1.40
2022-08-02T10:11:06.288Z,1.10
2022-08-02T10:16:10.226Z,1.23
2022-08-02T10:21:29.660Z,1.63
2022-08-02T10:26:33.309Z,1.40
2022-08-02T10:31:55.470Z,1.17
2022-08-02T10:37:03.622Z,1.20
2022-08-02T10:42:06.621Z,1.10
2022-08-02T10:47:17.225Z,1.00
2022-08-02T10:52:31.114Z,1.40
2022-08-02T10:57:35.486Z,0.90
2022-08-02T11:02:42.573Z,1.00
2022-08-02T11:07:50.541Z,1.15
2022-08-02T11:13:17.630Z,1.07
2022-08-02T11:18:22.343Z,1.30
2022-08-02T11:23:45.191Z,1.20
2022-08-02T11:28:51.856Z,1.23
2022-08-02T11:33:54.737Z,1.20
2022-08-02T11:39:15.820Z,1.20
2022-08-02T11:44:20.008Z,0.90
2022-08-02T11:49:26.755Z,1.05
2022-08-02T11:54:35.418Z,1.05
2022-08-02T12:04:42.779Z,0.90
2022-08-02T12:09:46.906Z,0.95
2022-08-02T12:14:49.781Z,0.90
2022-08-02T12:19:52.692Z,0.85
2022-08-02T12:24:58.577Z,0.93
2022-08-02T12:30:09.360Z,1.10
2022-08-02T12:35:25.932Z,1.00
2022-08-02T12:40:33.396Z,0.93
2022-08-02T12:45:56.652Z,1.00
2022-08-02T12:50:59.574Z,0.82
2022-08-02T12:56:03.870Z,0.80
2022-08-02T13:01:06.947Z,0.90
2022-08-02T13:06:40.955Z,0.70
2022-08-02T13:11:32.641Z,0.70
2022-08-02T13:16:35.466Z,0.75
2022-08-02T13:21:41.774Z,0.90
2022-08-02T13:27:04.470Z,0.70
2022-08-02T13:32:11.889Z,0.60
2022-08-02T13:37:15.212Z,0.50
2022-08-02T13:42:18.452Z,0.52
2022-08-02T13:47:26.587Z,0.40
2022-08-02T13:57:42.782Z,0.55
2022-08-02T14:02:56.308Z,0.60
2022-08-02T14:08:01.431Z,0.52
2022-08-02T14:13:04.515Z,0.43
2022-08-02T14:18:07.273Z,0.40
2022-08-02T14:23:10.415Z,0.55
2022-08-02T14:28:13.401Z,0.55
2022-08-02T14:33:16.307Z,0.47
2022-08-02T14:38:20.034Z,0.55
2022-08-02T14:43:41.804Z,0.50
2022-08-02T14:48:44.854Z,0.60
2022-08-02T14:53:49.688Z,0.65
2022-08-02T14:59:06.422Z,0.40
2022-08-02T15:04:09.303Z,0.50
2022-08-02T15:09:13.588Z,0.70
2022-08-02T15:14:25.828Z,0.63
2022-08-02T15:19:56.480Z,0.40
2022-08-02T15:24:54.376Z,0.50
2022-08-02T15:30:00.591Z,0.73
2022-08-02T15:35:04.414Z,0.50
2022-08-02T15:40:08.180Z,0.40
2022-08-02T15:45:14.765Z,0.68
2022-08-02T15:50:19.075Z,1.90
2022-08-02T15:55:22.948Z,0.60
2022-08-02T16:00:25.801Z,0.55
2022-08-02T16:05:28.853Z,0.47
2022-08-02T16:10:31.851Z,0.57
2022-08-02T16:15:34.821Z,0.60
2022-08-02T16:20:37.702Z,0.60
2022-08-02T16:25:42.073Z,0.60
2022-08-02T16:30:59.263Z,0.63
2022-08-02T16:36:07.984Z,0.70
2022-08-02T16:41:10.996Z,0.80
2022-08-02T16:46:15.596Z,0.57
2022-08-02T16:51:19.386Z,0.80
2022-08-02T16:56:22.885Z,0.77
2022-08-02T17:01:27.802Z,0.88
2022-08-02T17:06:51.932Z,0.80
2022-08-02T17:11:55.001Z,0.60
2022-08-02T17:16:57.945Z,0.65
2022-08-02T17:22:00.759Z,0.60
2022-08-02T17:27:04.257Z,0.60
2022-08-02T17:32:10.781Z,0.68
2022-08-02T17:37:14.747Z,0.50
2022-08-02T17:42:20.020Z,0.43
2022-08-02T17:47:30.937Z,0.80
2022-08-02T17:57:59.197Z,1.00
2022-08-02T18:03:05.937Z,0.70
2022-08-02T18:08:09.572Z,0.63
2022-08-02T18:13:12.894Z,0.50
2022-08-02T18:18:19.188Z,0.60
2022-08-02T18:23:32.443Z,0.43
2022-08-02T18:28:40.757Z,0.40
2022-08-02T18:34:00.164Z,0.45
2022-08-02T18:39:07.894Z,0.73
2022-08-02T18:44:15.755Z,0.40
2022-08-02T18:49:19.492Z,0.40
2022-08-02T18:54:26.694Z,0.50
2022-08-02T18:59:36.876Z,0.45
2022-08-02T19:04:43.717Z,0.50
2022-08-02T19:09:49.953Z,0.50
2022-08-02T19:14:52.825Z,0.63
2022-08-02T19:19:56.212Z,0.52
2022-08-02T19:25:00.100Z,0.43
2022-08-02T19:30:08.791Z,0.50
2022-08-02T19:35:19.556Z,0.50
2022-08-02T19:40:33.267Z,0.50
2022-08-02T19:45:50.961Z,0.60
2022-08-02T19:50:59.196Z,0.63
2022-08-02T19:56:04.568Z,0.50
2022-08-02T20:01:09.552Z,0.75
2022-08-02T20:06:29.784Z,0.75
2022-08-02T20:11:35.099Z,0.80
2022-08-02T20:16:38.386Z,0.80
2022-08-02T20:27:08.089Z,1.00
2022-08-02T20:32:11.924Z,0.95
2022-08-02T20:38:01.317Z,1.10
2022-08-02T20:42:38.291Z,1.00
2022-08-02T20:47:42.572Z,1.00
2022-08-02T20:52:49.288Z,1.17
2022-08-02T20:58:00.917Z,1.10
2022-08-02T21:03:05.325Z,0.80
2022-08-02T21:08:13.881Z,1.00
2022-08-02T21:13:22.655Z,0.80
2022-08-02T21:18:34.635Z,1.10
2022-08-02T21:23:44.991Z,1.00
2022-08-02T21:28:52.003Z,1.30
2022-08-02T21:33:59.447Z,1.00
2022-08-02T21:39:09.278Z,1.10
2022-08-02T21:44:12.832Z,1.15
2022-08-02T21:49:16.717Z,0.90
2022-08-02T21:54:21.527Z,0.90
2022-08-02T21:59:26.331Z,1.17
2022-08-02T22:04:30.029Z,1.00
2022-08-02T22:09:43.757Z,1.00
2022-08-02T22:14:53.854Z,1.02
2022-08-02T22:19:57.320Z,0.87
2022-08-02T22:25:00.467Z,1.30
2022-08-02T22:30:07.840Z,1.30
2022-08-02T22:35:13.297Z,1.27
2022-08-02T22:40:16.428Z,1.05
2022-08-02T22:45:20.782Z,1.25
2022-08-02T22:50:23.688Z,1.20
2022-08-02T22:55:32.232Z,1.17
2022-08-02T22:58:49.438Z,0.68
2022-08-02T22:58:55.202Z,0.90
2022-08-02T23:00:35.438Z,1.30
2022-08-02T23:05:39.044Z,1.50
2022-08-02T23:10:42.333Z,1.30
2022-08-02T23:16:04.152Z,1.55
2022-08-02T23:21:07.035Z,1.20
2022-08-02T23:26:09.976Z,1.35
2022-08-02T23:31:51.494Z,1.25
2022-08-02T23:36:55.822Z,1.60
2022-08-02T23:41:58.918Z,1.67
2022-08-02T23:47:01.662Z,1.35
2022-08-02T23:52:04.733Z,1.60
2022-08-02T23:57:20.425Z,1.90
